Time;durP1;ratioP1;P1;durP2;ratioP2;P2;SDS_P1;SDS_P2;PMS_P1;PMS_P2;Temp;Humidity;BMP_temperature;BMP_pressure;BME280_temperature;BME280_humidity;BME280_pressure;Samples;Min_cycle;Max_cycle;Signal;HPM_P1;HPM_P2
2022/10/26 00:00:08;;;;;;;54.10;10.13;;;358.70;2329.60;;;;;;5031170;28;20554;-75
2022/10/26 00:02:34;;;;;;;56.42;11.00;;;358.60;2329.60;;;;;;5030668;28;20072;-79
2022/10/26 00:04:59;;;;;;;28.80;8.88;;;358.60;2329.60;;;;;;5032468;28;20072;-76
2022/10/26 00:07:27;;;;;;;36.38;9.00;;;358.60;2329.60;;;;;;5032131;28;20029;-75
2022/10/26 00:09:53;;;;;;;33.40;9.27;;;358.50;2329.60;;;;;;5031950;28;20033;-75
2022/10/26 00:12:18;;;;;;;18.63;8.80;;;358.50;2329.60;;;;;;5032390;28;20038;-82
2022/10/26 00:14:44;;;;;;;28.48;8.10;;;358.50;2329.60;;;;;;5032326;28;20029;-75
2022/10/26 00:17:10;;;;;;;24.83;8.23;;;358.60;2329.60;;;;;;5032188;28;20048;-74
2022/10/26 00:19:37;;;;;;;28.33;9.48;;;358.50;2329.60;;;;;;5031790;28;20553;-76
2022/10/26 00:22:02;;;;;;;34.72;10.65;;;358.60;2329.60;;;;;;5030768;28;20037;-82
2022/10/26 00:24:28;;;;;;;18.95;10.32;;;358.60;2329.60;;;;;;5030581;28;20040;-74
2022/10/26 00:26:54;;;;;;;54.72;10.13;;;358.60;2329.60;;;;;;5030649;28;20026;-81
2022/10/26 00:29:19;;;;;;;32.90;10.00;;;358.60;2329.60;;;;;;5032020;28;20034;-75
2022/10/26 00:31:45;;;;;;;43.15;9.80;;;358.50;2329.60;;;;;;5032190;28;20029;-75
2022/10/26 00:34:11;;;;;;;20.17;7.85;;;358.50;2329.60;;;;;;5031931;28;20494;-83
2022/10/26 00:36:37;;;;;;;19.63;7.43;;;358.40;2329.60;;;;;;5031663;28;20037;-75
2022/10/26 00:39:03;;;;;;;11.13;7.82;;;358.40;2329.60;;;;;;5030856;28;20506;-75
2022/10/26 00:41:31;;;;;;;30.10;8.07;;;358.50;2329.60;;;;;;5031665;28;20116;-74
2022/10/26 00:43:58;;;;;;;44.25;9.32;;;358.50;2329.60;;;;;;5016156;28;20038;-75
2022/10/26 00:46:29;;;;;;;32.08;7.90;;;358.40;2329.60;;;;;;5030225;28;20033;-79
2022/10/26 00:49:00;;;;;;;24.17;7.57;;;358.40;2329.60;;;;;;5031722;28;20029;-82
2022/10/26 00:51:26;;;;;;;11.05;6.80;;;358.40;2329.60;;;;;;5023801;28;20058;-75
2022/10/26 00:53:53;;;;;;;27.90;7.25;;;358.40;2329.60;;;;;;5024568;28;20034;-74
2022/10/26 00:56:19;;;;;;;26.10;7.40;;;333.70;2329.60;;;;;;5028941;28;20049;-75
2022/10/26 00:58:46;;;;;;;37.05;7.68;;;333.60;2329.60;;;;;;5031744;28;20119;-78
2022/10/26 01:01:11;;;;;;;16.02;6.75;;;333.60;2329.60;;;;;;5031683;28;20037;-75
2022/10/26 01:03:38;;;;;;;13.23;7.40;;;333.60;2329.60;;;;;;5029527;28;20033;-76
2022/10/26 01:06:05;;;;;;;8.90;6.28;;;333.60;2329.60;;;;;;5017664;28;20065;-75
2022/10/26 01:08:31;;;;;;;8.48;6.00;;;333.50;2329.60;;;;;;5013090;28;20117;-75
2022/10/26 01:10:58;;;;;;;20.60;7.13;;;333.60;2329.60;;;;;;5031476;28;20108;-75
2022/10/26 01:13:30;;;;;;;26.23;7.88;;;333.50;2329.60;;;;;;5031414;28;20037;-75
2022/10/26 01:16:11;;;;;;;24.73;7.57;;;333.40;2329.60;;;;;;5031564;28;20052;-75
2022/10/26 01:18:48;;;;;;;18.95;7.60;;;333.40;2329.60;;;;;;5031565;28;20036;-75
2022/10/26 01:21:32;;;;;;;29.90;8.02;;;333.40;2329.60;;;;;;5029818;28;20466;-75
2022/10/26 01:24:18;;;;;;;19.50;7.55;;;333.30;2329.60;;;;;;5029417;28;20032;-75
2022/10/26 01:26:53;;;;;;;17.02;6.38;;;333.30;2329.60;;;;;;5030109;28;20494;-75
2022/10/26 01:29:55;;;;;;;23.15;7.35;;;333.20;2329.60;;;;;;5029926;28;20034;-75
2022/10/26 01:32:32;;;;;;;16.05;7.20;;;333.20;2329.60;;;;;;5031291;28;20065;-74
2022/10/26 01:35:09;;;;;;;12.90;6.63;;;333.20;2329.60;;;;;;5031009;28;20029;-76
2022/10/26 01:37:40;;;;;;;19.50;7.15;;;333.20;2329.60;;;;;;5031228;28;20087;-75
2022/10/26 01:40:22;;;;;;;15.40;8.23;;;333.20;2329.60;;;;;;5034140;28;20095;-75
2022/10/26 01:42:53;;;;;;;14.05;7.22;;;333.10;2329.60;;;;;;5022947;28;20070;-75
2022/10/26 01:45:19;;;;;;;11.38;7.10;;;333.10;2329.60;;;;;;5026894;28;20036;-74
2022/10/26 01:47:47;;;;;;;19.52;7.18;;;333.20;2329.60;;;;;;5032512;28;20080;-75
2022/10/26 01:50:13;;;;;;;9.10;6.43;;;333.20;2329.60;;;;;;5033084;28;20049;-74
2022/10/26 01:52:39;;;;;;;15.43;6.90;;;333.20;2329.60;;;;;;5034540;28;20483;-75
2022/10/26 01:55:37;;;;;;;16.52;7.53;;;333.20;2329.60;;;;;;5033807;28;20037;-75
2022/10/26 01:58:22;;;;;;;11.13;8.05;;;333.30;2329.60;;;;;;5035956;28;20069;-82
2022/10/26 02:01:20;;;;;;;15.00;7.88;;;333.30;2329.60;;;;;;5034432;28;20120;-74
2022/10/26 02:04:10;;;;;;;10.90;8.48;;;333.20;2329.60;;;;;;4962343;28;20039;-75
2022/10/26 02:06:53;;;;;;;15.35;7.43;;;333.20;2329.60;;;;;;4947711;28;20034;-74
2022/10/26 02:09:27;;;;;;;15.00;8.35;;;333.10;2329.60;;;;;;4957375;28;20039;-75
2022/10/26 02:11:54;;;;;;;10.75;7.38;;;333.10;2329.60;;;;;;4949195;29;20045;-75
2022/10/26 02:14:30;;;;;;;24.17;8.45;;;333.10;2329.60;;;;;;4967628;28;20114;-75
2022/10/26 02:17:01;;;;;;;14.55;8.32;;;333.00;2329.60;;;;;;4957384;28;20065;-75
2022/10/26 02:19:51;;;;;;;34.17;10.10;;;333.00;2329.60;;;;;;4956326;28;20079;-75
2022/10/26 02:22:44;;;;;;;22.65;8.80;;;333.10;2329.60;;;;;;4956316;28;20047;-75
2022/10/26 02:25:26;;;;;;;28.35;9.32;;;333.10;2329.60;;;;;;4973182;28;20576;-76
2022/10/26 02:28:02;;;;;;;21.45;9.05;;;333.10;2329.60;;;;;;4973331;28;20030;-75
2022/10/26 02:30:28;;;;;;;24.60;8.85;;;333.10;2329.60;;;;;;4956964;28;20031;-75
2022/10/26 02:32:56;;;;;;;29.77;8.73;;;333.10;2329.60;;;;;;4972372;28;20065;-75
2022/10/26 02:35:31;;;;;;;30.77;9.48;;;333.10;2329.60;;;;;;4972826;28;20051;-75
2022/10/26 02:38:01;;;;;;;23.33;9.32;;;333.10;2329.60;;;;;;4972303;28;20038;-75
2022/10/26 02:40:28;;;;;;;26.30;10.65;;;333.10;2329.60;;;;;;4994086;28;20034;-75
2022/10/26 02:42:56;;;;;;;18.27;9.32;;;333.10;2329.60;;;;;;5025976;28;20022;-75
2022/10/26 02:45:27;;;;;;;37.97;11.50;;;333.10;2329.60;;;;;;5027698;28;20494;-75
2022/10/26 02:47:54;;;;;;;26.70;10.10;;;333.10;2329.60;;;;;;5033712;28;20033;-75
2022/10/26 02:50:26;;;;;;;44.25;10.60;;;333.10;2329.60;;;;;;5032279;28;20473;-75
2022/10/26 02:52:58;;;;;;;35.17;11.23;;;333.10;2329.60;;;;;;5032090;28;20402;-75
2022/10/26 02:55:32;;;;;;;32.03;10.55;;;333.10;2329.60;;;;;;5033234;28;20041;-74
2022/10/26 02:58:08;;;;;;;36.72;10.40;;;333.10;2329.60;;;;;;5032104;28;20372;-82
2022/10/26 03:00:34;;;;;;;33.70;10.15;;;333.00;2329.60;;;;;;5033202;28;20048;-75
2022/10/26 03:03:02;;;;;;;20.60;8.57;;;332.90;2329.60;;;;;;5030647;28;20566;-75
2022/10/26 03:05:31;;;;;;;28.15;9.82;;;333.00;2329.60;;;;;;5033424;28;20394;-76
2022/10/26 03:07:58;;;;;;;12.95;8.85;;;332.90;2329.60;;;;;;5031341;28;20057;-75
2022/10/26 03:10:24;;;;;;;13.50;9.73;;;332.90;2329.60;;;;;;5033342;28;20034;-76
2022/10/26 03:12:50;;;;;;;13.68;8.48;;;332.90;2329.60;;;;;;5032554;28;20495;-75
2022/10/26 03:15:16;;;;;;;11.55;9.18;;;332.90;2329.60;;;;;;5031618;28;20049;-75
2022/10/26 03:17:42;;;;;;;9.80;8.80;;;333.10;2329.60;;;;;;5014694;28;20045;-75
2022/10/26 03:20:10;;;;;;;11.27;9.82;;;333.10;2329.60;;;;;;5031739;28;20504;-75
2022/10/26 03:22:35;;;;;;;13.82;9.20;;;333.10;2329.60;;;;;;5032651;28;20460;-75
2022/10/26 03:25:02;;;;;;;14.38;9.27;;;333.10;2329.60;;;;;;5031619;28;20053;-75
2022/10/26 03:27:27;;;;;;;14.60;9.73;;;333.00;2329.60;;;;;;5032330;28;20038;-75
2022/10/26 03:29:53;;;;;;;22.27;11.60;;;333.10;2329.60;;;;;;5032593;28;20434;-75
2022/10/26 03:32:19;;;;;;;17.42;10.23;;;333.10;2329.60;;;;;;5032828;28;20041;-75
2022/10/26 03:34:45;;;;;;;12.20;10.23;;;333.10;2329.60;;;;;;5032642;28;20026;-75
2022/10/26 03:37:10;;;;;;;16.98;10.35;;;333.00;2329.60;;;;;;5032753;28;20395;-76
2022/10/26 03:39:36;;;;;;;23.55;12.85;;;333.00;2329.60;;;;;;5031157;28;20069;-75
2022/10/26 03:42:02;;;;;;;24.55;11.77;;;332.90;2329.60;;;;;;5032062;28;20395;-75
2022/10/26 03:44:27;;;;;;;18.50;11.32;;;332.90;2329.60;;;;;;5019007;28;20029;-75
2022/10/26 03:46:53;;;;;;;14.23;10.85;;;332.90;2329.60;;;;;;5032799;28;20029;-75
2022/10/26 03:49:19;;;;;;;19.45;11.27;;;332.90;2329.60;;;;;;5032185;28;20041;-75
2022/10/26 03:51:44;;;;;;;21.10;11.52;;;332.90;2329.60;;;;;;5032444;28;20107;-75
2022/10/26 03:54:10;;;;;;;15.27;10.00;;;332.80;2329.60;;;;;;5032178;28;20064;-76
2022/10/26 03:56:36;;;;;;;16.70;10.90;;;332.80;2329.60;;;;;;5032040;28;20045;-76
2022/10/26 03:59:02;;;;;;;15.27;11.05;;;308.10;2304.00;;;;;;5030357;28;20033;-74
2022/10/26 04:01:28;;;;;;;19.48;11.27;;;332.90;2329.60;;;;;;5031823;28;20150;-75
2022/10/26 04:03:53;;;;;;;25.98;11.10;;;308.10;2304.00;;;;;;5032493;28;20479;-75
2022/10/26 04:06:19;;;;;;;27.00;11.80;;;308.00;2304.00;;;;;;5032134;28;20064;-75
2022/10/26 04:08:45;;;;;;;81.85;14.82;;;308.10;2304.00;;;;;;5032270;28;20480;-75
2022/10/26 04:11:11;;;;;;;51.30;12.75;;;308.10;2304.00;;;;;;5031925;28;20091;-84
2022/10/26 04:13:36;;;;;;;56.40;13.32;;;308.00;2304.00;;;;;;5030016;28;20384;-75
2022/10/26 04:16:02;;;;;;;72.43;12.82;;;307.90;2304.00;;;;;;5031824;28;20037;-74
2022/10/26 04:18:28;;;;;;;55.92;13.10;;;308.00;2304.00;;;;;;5032231;28;20034;-75
2022/10/26 04:20:53;;;;;;;29.83;11.48;;;308.00;2304.00;;;;;;5031872;28;20041;-75
2022/10/26 04:23:19;;;;;;;25.75;13.55;;;307.90;2304.00;;;;;;5030739;28;20056;-75
2022/10/26 04:25:45;;;;;;;54.08;14.45;;;308.00;2304.00;;;;;;5032032;28;20088;-76
2022/10/26 04:28:12;;;;;;;43.33;12.95;;;308.10;2304.00;;;;;;5028478;28;20487;-75
2022/10/26 04:30:39;;;;;;;36.20;12.93;;;332.90;2329.60;;;;;;4992230;28;20031;-75
2022/10/26 04:33:05;;;;;;;31.92;11.32;;;308.00;2304.00;;;;;;4994523;28;20117;-74
2022/10/26 04:35:31;;;;;;;29.25;10.85;;;307.80;2304.00;;;;;;4994315;28;20117;-75
2022/10/26 04:38:02;;;;;;;21.50;9.77;;;307.70;2304.00;;;;;;5032040;28;20037;-76
2022/10/26 04:40:29;;;;;;;21.00;13.25;;;307.80;2304.00;;;;;;5030533;28;20121;-77
2022/10/26 04:42:55;;;;;;;48.28;14.73;;;307.90;2304.00;;;;;;5024179;28;20030;-77
2022/10/26 04:45:21;;;;;;;17.38;11.68;;;308.00;2304.00;;;;;;5024610;28;20032;-76
2022/10/26 04:47:57;;;;;;;23.48;11.60;;;308.00;2304.00;;;;;;5030546;28;20029;-77
2022/10/26 04:50:23;;;;;;;31.40;13.43;;;307.80;2304.00;;;;;;5030445;28;20144;-79
2022/10/26 04:52:50;;;;;;;33.60;13.13;;;307.90;2304.00;;;;;;5030836;28;20040;-76
2022/10/26 04:55:16;;;;;;;31.65;13.00;;;307.80;2304.00;;;;;;5013825;28;20033;-83
2022/10/26 04:57:43;;;;;;;25.90;13.70;;;307.80;2304.00;;;;;;5016056;28;20037;-77
2022/10/26 05:00:10;;;;;;;22.52;13.65;;;307.90;2304.00;;;;;;5031760;28;20034;-76
2022/10/26 05:02:35;;;;;;;19.73;11.55;;;308.00;2304.00;;;;;;5025960;28;20380;-77
2022/10/26 05:05:01;;;;;;;27.17;11.77;;;307.80;2304.00;;;;;;5001668;28;20038;-79
2022/10/26 05:07:27;;;;;;;58.65;22.27;;;307.60;2304.00;;;;;;5002735;28;20096;-82
2022/10/26 05:09:53;;;;;;;48.78;15.13;;;307.40;2304.00;;;;;;5008455;28;20034;-82
2022/10/26 05:12:19;;;;;;;40.17;14.07;;;307.40;2304.00;;;;;;5009273;28;20049;-79
2022/10/26 05:14:44;;;;;;;54.72;12.95;;;307.30;2304.00;;;;;;5020930;28;20392;-79
2022/10/26 05:17:10;;;;;;;32.03;12.63;;;282.50;2278.40;;;;;;5021795;28;20049;-80
2022/10/26 05:19:36;;;;;;;27.13;12.05;;;282.40;2278.40;;;;;;5034139;28;20491;-83
2022/10/26 05:22:03;;;;;;;23.30;12.50;;;282.40;2278.40;;;;;;5035638;28;20043;-78
2022/10/26 05:24:28;;;;;;;29.45;11.50;;;282.40;2278.40;;;;;;5019424;28;20105;-83
2022/10/26 05:26:54;;;;;;;34.00;13.27;;;282.30;2278.40;;;;;;5020172;28;20077;-88
2022/10/26 05:29:20;;;;;;;;;;;282.30;2278.40;;;;;;5027009;28;20057;-82
2022/10/26 05:31:45;;;;;;;35.45;10.95;;;282.40;2278.40;;;;;;5032017;28;19913;-79
2022/10/26 05:34:11;;;;;;;18.77;10.52;;;282.50;2278.40;;;;;;5017579;28;20026;-82
2022/10/26 05:36:37;;;;;;;24.42;11.30;;;307.20;2304.00;;;;;;5008186;28;20042;-89
2022/10/26 05:39:03;;;;;;;22.20;10.57;;;282.50;2278.40;;;;;;5011465;28;20033;-86
2022/10/26 05:41:28;;;;;;;;;;;282.40;2278.40;;;;;;5007085;28;20037;-86
2022/10/26 05:43:54;;;;;;;15.38;9.52;;;282.20;2278.40;;;;;;5007926;28;20359;-85
2022/10/26 05:46:20;;;;;;;32.88;11.15;;;282.40;2278.40;;;;;;5013779;28;20115;-84
2022/10/26 05:48:45;;;;;;;26.33;11.10;;;282.30;2278.40;;;;;;5028624;28;20038;-87
2022/10/26 05:51:11;;;;;;;36.10;12.35;;;282.40;2278.40;;;;;;5023539;28;20123;-81
2022/10/26 05:53:37;;;;;;;34.33;12.30;;;282.40;2278.40;;;;;;5033502;28;20033;-77
2022/10/26 05:56:34;;;;;;;63.63;14.68;;;282.40;2278.40;;;;;;5033141;28;20561;-80
2022/10/26 05:59:00;;;;;;;114.03;17.25;;;282.30;2278.40;;;;;;5013042;28;20072;-80
2022/10/26 06:01:37;;;;;;;70.63;14.13;;;282.30;2278.40;;;;;;5023553;28;20046;-86
2022/10/26 06:04:29;;;;;;;60.20;14.65;;;282.20;2278.40;;;;;;5030439;28;20034;-77
2022/10/26 06:06:56;;;;;;;77.53;15.63;;;282.10;2278.40;;;;;;5026351;28;20029;-77
2022/10/26 06:09:22;;;;;;;36.17;14.50;;;282.30;2278.40;;;;;;5034382;28;20021;-76
2022/10/26 06:11:48;;;;;;;56.85;15.13;;;282.50;2278.40;;;;;;5033478;28;20033;-79
2022/10/26 06:14:14;;;;;;;29.35;13.15;;;307.20;2304.00;;;;;;5033114;28;20025;-78
2022/10/26 06:16:52;;;;;;;53.63;15.60;;;307.40;2304.00;;;;;;5034614;28;20494;-79
2022/10/26 06:19:23;;;;;;;38.75;13.93;;;307.40;2304.00;;;;;;5031889;28;20490;-87
2022/10/26 06:22:10;;;;;;;39.80;14.40;;;307.50;2304.00;;;;;;5013895;28;20042;-81
2022/10/26 06:24:36;;;;;;;55.47;13.82;;;307.50;2304.00;;;;;;5027644;28;20030;-80
2022/10/26 06:27:23;;;;;;;64.45;17.42;;;307.50;2304.00;;;;;;5013900;28;20434;-81
2022/10/26 06:30:11;;;;;;;44.38;16.05;;;307.60;2304.00;;;;;;5032540;28;20125;-87
2022/10/26 06:32:43;;;;;;;92.78;17.45;;;307.70;2304.00;;;;;;5002466;28;20025;-80
2022/10/26 06:35:19;;;;;;;67.78;16.02;;;307.70;2304.00;;;;;;5020374;28;20042;-85
2022/10/26 06:37:45;;;;;;;37.22;14.98;;;307.80;2304.00;;;;;;5032915;28;20037;-81
2022/10/26 06:40:16;;;;;;;86.65;14.77;;;307.80;2304.00;;;;;;5032725;28;20495;-80
2022/10/26 06:42:42;;;;;;;68.43;15.70;;;307.80;2304.00;;;;;;5009922;28;20026;-84
2022/10/26 06:45:13;;;;;;;57.53;14.60;;;307.80;2304.00;;;;;;5024694;28;20038;-79
2022/10/26 06:48:01;;;;;;;61.67;14.82;;;307.80;1996.80;;;;;;5032597;28;20388;-78
2022/10/26 06:50:37;;;;;;;59.88;13.60;;;307.80;1996.80;;;;;;5017809;28;20049;-79
2022/10/26 06:53:15;;;;;;;27.70;11.38;;;307.90;2304.00;;;;;;5019094;28;20048;-80
2022/10/26 06:55:44;;;;;;;26.63;11.60;;;308.00;2304.00;;;;;;5032509;28;20095;-79
2022/10/26 06:58:16;;;;;;;23.25;12.50;;;308.00;2304.00;;;;;;5032348;28;20037;-80
2022/10/26 07:00:45;;;;;;;19.80;10.73;;;308.00;2304.00;;;;;;5032345;28;20029;-81
2022/10/26 07:03:11;;;;;;;25.23;10.90;;;332.80;2048.00;;;;;;5016145;28;20037;-83
2022/10/26 07:05:37;;;;;;;20.80;10.30;;;332.80;2329.60;;;;;;5032536;28;20037;-81
2022/10/26 07:08:04;;;;;;;27.85;11.30;;;308.10;2304.00;;;;;;5018856;28;20347;-80
2022/10/26 07:10:30;;;;;;;54.30;12.65;;;332.90;2329.60;;;;;;5016042;28;20472;-83
2022/10/26 07:12:56;;;;;;;31.20;12.02;;;333.00;1971.20;;;;;;5029985;28;20030;-82
2022/10/26 07:15:22;;;;;;;27.50;12.70;;;333.00;2329.60;;;;;;5021837;28;20041;-83
2022/10/26 07:17:49;;;;;;;20.73;12.13;;;333.10;2329.60;;;;;;5032687;28;20206;-81
2022/10/26 07:20:16;;;;;;;76.70;13.63;;;333.20;2329.60;;;;;;5031857;28;20033;-80
2022/10/26 07:22:42;;;;;;;26.35;11.20;;;333.20;2329.60;;;;;;5032031;28;20041;-79
2022/10/26 07:25:08;;;;;;;20.40;11.18;;;333.30;2329.60;;;;;;5018029;28;20028;-81
2022/10/26 07:27:34;;;;;;;21.33;12.45;;;333.50;2329.60;;;;;;5031909;28;20060;-81
2022/10/26 07:30:00;;;;;;;13.95;11.07;;;333.60;2329.60;;;;;;5031900;28;20057;-80
2022/10/26 07:32:26;;;;;;;13.52;11.32;;;333.70;2329.60;;;;;;5015094;28;20030;-79
2022/10/26 07:34:52;;;;;;;24.25;12.32;;;358.50;2329.60;;;;;;5019162;28;20036;-77
2022/10/26 07:37:17;;;;;;;13.80;11.35;;;358.50;2329.60;;;;;;5030689;28;20045;-83
2022/10/26 07:39:43;;;;;;;13.77;11.00;;;358.60;2329.60;;;;;;5031841;28;20040;-85
2022/10/26 07:42:09;;;;;;;31.60;12.73;;;358.60;2329.60;;;;;;5029943;28;20033;-83
2022/10/26 07:44:34;;;;;;;16.98;11.20;;;358.70;2329.60;;;;;;5013988;28;20530;-79
2022/10/26 07:47:00;;;;;;;28.48;12.48;;;358.70;2329.60;;;;;;5024694;28;20487;-79
2022/10/26 07:49:26;;;;;;;260.65;56.67;;;358.80;2329.60;;;;;;5031312;28;20037;-86
2022/10/26 07:51:52;;;;;;;45.88;14.13;;;358.80;2022.40;;;;;;5030596;28;20137;-81
2022/10/26 07:54:17;;;;;;;87.05;16.08;;;358.80;2329.60;;;;;;5030742;28;20526;-77
2022/10/26 07:56:43;;;;;;;53.45;14.52;;;358.80;2329.60;;;;;;5021711;28;20045;-77
2022/10/26 07:59:12;;;;;;;52.22;16.30;;;358.80;1971.20;;;;;;5026415;28;20097;-80
2022/10/26 08:26:37;;;;;;;39.58;19.27;;;358.80;2329.60;;;;;;5117554;27;20384;-75
2022/10/26 08:29:03;;;;;;;28.67;18.38;;;384.30;2329.60;;;;;;5107684;28;20171;-78
2022/10/26 08:31:29;;;;;;;34.65;18.58;;;384.20;2329.60;;;;;;5109076;28;20035;-77
2022/10/26 08:33:55;;;;;;;32.15;18.63;;;384.30;2329.60;;;;;;5108220;28;20469;-79
2022/10/26 08:36:25;;;;;;;31.35;19.52;;;384.30;2329.60;;;;;;5108470;28;20035;-78
2022/10/26 08:38:51;;;;;;;33.30;19.23;;;384.30;2329.60;;;;;;5103071;28;20037;-82
2022/10/26 08:41:39;;;;;;;28.92;19.10;;;384.40;2329.60;;;;;;5099764;28;20028;-81
2022/10/26 08:44:43;;;;;;;43.30;21.05;;;384.50;2329.60;;;;;;5109033;28;20028;-80
2022/10/26 08:47:16;;;;;;;31.67;21.15;;;384.60;2329.60;;;;;;5109320;28;20024;-84
2022/10/26 08:50:20;;;;;;;29.30;19.20;;;384.60;2329.60;;;;;;5097995;28;20119;-82
2022/10/26 08:53:06;;;;;;;25.42;19.10;;;384.70;2329.60;;;;;;5096900;28;20035;-77
2022/10/26 08:55:49;;;;;;;28.52;20.58;;;384.70;2329.60;;;;;;5108097;28;20040;-79
2022/10/26 08:58:20;;;;;;;32.75;20.98;;;384.90;2329.60;;;;;;5108249;28;20036;-77
2022/10/26 09:00:48;;;;;;;65.22;36.15;;;384.70;2329.60;;;;;;5107998;28;20024;-78
2022/10/26 09:03:16;;;;;;;51.28;30.25;;;384.70;2329.60;;;;;;5108373;28;20055;-78
2022/10/26 09:06:05;;;;;;;39.53;25.38;;;384.90;2329.60;;;;;;5108510;28;20027;-79
2022/10/26 09:08:35;;;;;;;36.53;24.98;;;409.60;2355.20;;;;;;5108687;28;20023;-78
2022/10/26 09:11:14;;;;;;;36.25;24.92;;;409.70;2355.20;;;;;;5108049;28;20028;-80
2022/10/26 09:13:58;;;;;;;36.60;24.15;;;409.80;2355.20;;;;;;5109414;28;20023;-78
2022/10/26 09:16:41;;;;;;;36.55;26.13;;;409.90;2355.20;;;;;;5108121;28;20028;-77
2022/10/26 09:19:36;;;;;;;37.63;24.75;;;410.00;2355.20;;;;;;5108975;28;20477;-77
2022/10/26 09:22:28;;;;;;;35.35;23.80;;;410.20;2355.20;;;;;;5107502;28;20023;-76
2022/10/26 09:25:03;;;;;;;31.08;21.77;;;410.20;2355.20;;;;;;5108861;28;20127;-79
2022/10/26 09:27:36;;;;;;;32.10;23.37;;;435.30;2355.20;;;;;;5082368;28;20539;-80
2022/10/26 09:30:15;;;;;;;31.13;22.58;;;435.50;2355.20;;;;;;5094485;28;20276;-81
2022/10/26 09:32:45;;;;;;;29.83;21.17;;;435.60;2355.20;;;;;;5094985;28;20031;-80
2022/10/26 09:35:27;;;;;;;26.92;19.95;;;435.70;2355.20;;;;;;5094191;28;20129;-81
2022/10/26 09:38:16;;;;;;;25.35;18.88;;;436.00;2355.20;;;;;;5094360;28;20055;-77
2022/10/26 09:40:57;;;;;;;24.63;18.58;;;436.10;2355.20;;;;;;5094416;28;20023;-80
2022/10/26 09:43:34;;;;;;;27.75;19.20;;;461.00;2380.80;;;;;;5094980;28;20095;-79
2022/10/26 09:46:00;;;;;;;21.65;16.95;;;461.30;2380.80;;;;;;5093429;28;20035;-78
2022/10/26 09:48:42;;;;;;;22.98;16.60;;;461.60;2380.80;;;;;;5093694;28;20020;-79
2022/10/26 09:51:10;;;;;;;24.50;17.40;;;486.50;2380.80;;;;;;5094085;28;20035;-78
2022/10/26 09:53:35;;;;;;;21.00;16.08;;;486.60;2380.80;;;;;;5091854;28;20388;-78
2022/10/26 09:56:12;;;;;;;23.27;15.95;;;486.80;2380.80;;;;;;5082677;28;20130;-80
2022/10/26 09:58:58;;;;;;;19.02;14.77;;;486.90;2380.80;;;;;;5093783;28;20127;-78
2022/10/26 10:01:31;;;;;;;20.73;14.48;;;487.20;2380.80;;;;;;5093593;28;20028;-82
2022/10/26 10:04:12;;;;;;;22.27;14.68;;;487.30;2380.80;;;;;;5093337;28;20481;-77
2022/10/26 10:06:45;;;;;;;19.95;13.68;;;487.00;2380.80;;;;;;5093520;28;20093;-80
2022/10/26 10:09:22;;;;;;;20.27;14.02;;;487.00;2380.80;;;;;;5093606;28;20073;-79
2022/10/26 10:12:00;;;;;;;18.85;13.88;;;486.80;2380.80;;;;;;5093334;28;20032;-82
2022/10/26 10:14:30;;;;;;;19.38;13.65;;;486.70;2380.80;;;;;;5066271;28;20388;-77
2022/10/26 10:16:58;;;;;;;17.60;14.25;;;486.50;2380.80;;;;;;5092941;28;20027;-77
2022/10/26 10:19:31;;;;;;;17.65;14.07;;;486.60;2380.80;;;;;;5093005;28;20016;-78
2022/10/26 10:22:18;;;;;;;20.13;13.68;;;486.50;2380.80;;;;;;5092709;28;20122;-78
2022/10/26 10:24:53;;;;;;;18.80;12.60;;;486.50;2380.80;;;;;;5092755;28;20428;-77
2022/10/26 10:27:19;;;;;;;21.40;13.32;;;486.40;2380.80;;;;;;5092916;28;20484;-78
2022/10/26 10:29:44;;;;;;;15.38;11.98;;;486.60;2380.80;;;;;;5094062;28;20032;-81
2022/10/26 10:32:21;;;;;;;19.48;13.73;;;486.70;2380.80;;;;;;5093108;28;20119;-79
2022/10/26 10:34:49;;;;;;;17.67;11.32;;;486.60;2380.80;;;;;;5083621;28;20556;-77
2022/10/26 10:37:37;;;;;;;15.77;12.00;;;486.70;2380.80;;;;;;5083076;28;20059;-76
2022/10/26 10:40:06;;;;;;;18.20;12.88;;;486.80;2380.80;;;;;;5082556;28;20432;-76
2022/10/26 10:42:35;;;;;;;17.27;12.15;;;486.80;2380.80;;;;;;5081600;28;20141;-77
2022/10/26 10:45:02;;;;;;;21.60;13.50;;;486.80;2380.80;;;;;;5084452;28;20020;-77
2022/10/26 10:47:33;;;;;;;17.67;12.15;;;486.80;2380.80;;;;;;5077835;28;20085;-77
2022/10/26 10:50:14;;;;;;;19.58;11.65;;;487.10;2380.80;;;;;;5080621;28;20107;-84
2022/10/26 10:52:40;;;;;;;18.90;13.20;;;487.30;2380.80;;;;;;5075601;28;20115;-80
2022/10/26 10:55:12;;;;;;;18.90;15.20;;;512.20;2380.80;;;;;;5084498;28;20052;-79
2022/10/26 10:57:53;;;;;;;20.95;16.60;;;512.80;2380.80;;;;;;5092323;28;20044;-79
2022/10/26 11:00:23;;;;;;;21.48;16.17;;;537.90;2406.40;;;;;;5092526;28;20032;-78
2022/10/26 11:02:55;;;;;;;23.67;18.42;;;537.90;2406.40;;;;;;5092305;28;20030;-78
2022/10/26 11:05:35;;;;;;;23.55;18.92;;;537.90;2406.40;;;;;;5092589;28;20473;-78
2022/10/26 11:08:12;;;;;;;26.20;20.10;;;538.20;2406.40;;;;;;5092274;28;20040;-84
2022/10/26 11:10:59;;;;;;;29.55;21.85;;;538.30;2406.40;;;;;;5093393;28;20050;-85
2022/10/26 11:13:40;;;;;;;34.65;22.80;;;538.50;2406.40;;;;;;5093663;28;20073;-79
2022/10/26 11:16:13;;;;;;;22.92;20.33;;;538.30;2406.40;;;;;;5092173;28;20047;-79
2022/10/26 11:18:49;;;;;;;29.52;22.42;;;538.30;2406.40;;;;;;5091754;28;20081;-80
2022/10/26 11:21:21;;;;;;;26.55;20.73;;;563.20;2432.00;;;;;;5092461;28;20036;-81
2022/10/26 11:24:09;;;;;;;26.80;20.83;;;563.40;2432.00;;;;;;5092237;28;20549;-82
2022/10/26 11:26:45;;;;;;;26.25;18.33;;;563.40;2432.00;;;;;;5087143;28;20383;-82
2022/10/26 11:29:27;;;;;;;28.55;21.08;;;563.50;2432.00;;;;;;5084846;28;20024;-82
2022/10/26 11:32:00;;;;;;;29.85;21.33;;;563.60;2432.00;;;;;;5090131;28;20043;-80
2022/10/26 11:34:39;;;;;;;33.20;23.60;;;563.60;2432.00;;;;;;5085933;28;20115;-81
2022/10/26 11:37:18;;;;;;;26.05;20.10;;;563.70;2432.00;;;;;;5058355;28;20082;-83
2022/10/26 11:40:00;;;;;;;22.48;14.90;;;564.00;2432.00;;;;;;5072273;28;20020;-83
2022/10/26 11:43:01;;;;;;;22.13;15.07;;;588.80;2150.40;;;;;;5091564;28;20066;-80
2022/10/26 11:45:31;;;;;;;26.33;16.55;;;588.80;2201.60;;;;;;5060429;28;20253;-81
2022/10/26 11:48:11;;;;;;;24.88;15.05;;;564.10;2278.40;;;;;;5077967;28;20024;-81
2022/10/26 11:50:47;;;;;;;22.27;13.52;;;588.80;2201.60;;;;;;5085706;28;20128;-84
2022/10/26 11:53:19;;;;;;;11.32;7.40;;;564.10;2329.60;;;;;;5079176;28;20026;-80
2022/10/26 11:55:49;;;;;;;21.10;14.57;;;564.00;2176.00;;;;;;5084325;28;20078;-83
2022/10/26 11:58:16;;;;;;;19.25;13.07;;;564.10;2252.80;;;;;;5075923;28;20028;-81
2022/10/26 12:00:52;;;;;;;18.40;11.52;;;564.00;2304.00;;;;;;5088557;28;20025;-84
2022/10/26 12:03:21;;;;;;;;;;;563.80;2278.40;;;;;;5082773;28;20035;-80
2022/10/26 12:05:49;;;;;;;24.35;15.18;;;563.80;2252.80;;;;;;5084447;28;19946;-81
2022/10/26 12:08:26;;;;;;;25.95;16.15;;;563.60;2227.20;;;;;;5072813;28;20474;-82
2022/10/26 12:11:18;;;;;;;30.83;15.55;;;563.60;2355.20;;;;;;5076087;28;20020;-84
2022/10/26 12:13:53;;;;;;;21.80;13.75;;;563.50;2355.20;;;;;;5059355;28;20056;-84
2022/10/26 12:16:43;;;;;;;20.73;14.23;;;563.40;2304.00;;;;;;5085015;28;20055;-84
2022/10/26 12:19:25;;;;;;;19.52;13.25;;;563.20;2278.40;;;;;;5096772;28;20032;-81
2022/10/26 12:21:51;;;;;;;21.38;15.02;;;538.40;2227.20;;;;;;5105490;28;20027;-81
2022/10/26 12:24:24;;;;;;;24.90;17.67;;;538.40;2380.80;;;;;;5102533;28;20036;-81
2022/10/26 12:26:51;;;;;;;26.77;17.50;;;538.30;2380.80;;;;;;5085027;28;20477;-85
2022/10/26 12:29:38;;;;;;;25.15;17.48;;;538.20;2406.40;;;;;;5084664;28;20123;-80
2022/10/26 12:32:26;;;;;;;26.92;17.35;;;538.30;2406.40;;;;;;5091740;28;20024;-80
2022/10/26 12:34:53;;;;;;;12.90;9.68;;;538.20;2406.40;;;;;;5091271;28;20481;-81
2022/10/26 12:37:28;;;;;;;15.80;9.85;;;538.20;2406.40;;;;;;5091034;28;20024;-83
2022/10/26 12:39:53;;;;;;;18.50;12.00;;;538.20;2406.40;;;;;;5091553;28;20473;-84
2022/10/26 12:42:29;;;;;;;18.13;11.73;;;538.10;2406.40;;;;;;5091061;28;20039;-82
2022/10/26 12:44:57;;;;;;;17.23;11.40;;;538.00;2406.40;;;;;;5090957;28;20028;-81
2022/10/26 12:47:29;;;;;;;18.05;9.07;;;538.10;2406.40;;;;;;5091502;28;20055;-81
2022/10/26 12:50:08;;;;;;;13.90;7.55;;;538.20;2406.40;;;;;;5088081;28;20059;-82